Lone Star Executive Airport
KCXO : now visible

Airfield :











YOU CAN JOIN US ON...

 
LOGIN :

Register | Disclaimer

   EN    FR    IT 

 









Legend :    VFR   Marginal VFR   IFR   Intensive IFR   Very Intensive IFR
Visi :
Ceiling :
>= 8 km
>= 3000ft
5 to 8 km
1000 to 3000 ft
1500m to 5 km
500 to 1000 ft
800 to 1500m
200 to 500 ft
< 800m
< 200 ft
Symbols :   Thunderstorms  Fog  Heavy snow  Heavy precipitations  Wind > 20 kt






- Airport Elevation : 245 ft


KCXO - Lone Star Executive

CURRENT METAR :
  • 211953Z 03007KT 010V100 10SM CLR 19/M02 A3022 RMK AO2 SLP231 T01891017

EXPIRED METARs :
  • 211853Z 07013G18KT 10SM CLR 17/M02 A3026 RMK AO2 SLP244 T01721017
  • 211753Z 01010G16KT 330V040 10SM BKN065 16/M01 A3029 RMK AO2 SLP256 T01611011 10167 20067 58012
  • 211653Z 04010KT 10SM OVC065 13/M01 A3033 RMK AO2 SLP270 T01331011

TAF KCXO
Valid from the 21 at 18:00 until the 22 at 18:00 UTC


211720Z 2118/2218 02010G15KT P6SM OVC070
FM212100 01007KT P6SM SCT050
FM220100 VRB03KT P6SM SCT040
FM221500 11010KT P6SM BKN040
KZHU FIR / North America



MET'MAP, your aeronautical weather chart ! - Copyright ORBIFLY December 2007 - Disclaimer

ORBIFLY MET'MAP TEAM :

Programming & Development : Alexandra Zaïnal
Concept & original design : Baudouin d'Aumeries
Assistance for programming : Marc-Olivier Méhu
Technical & hardware support : Manuel Goepfert

Contact : metmap@orbifly.com




SOURCES & CREDITS :

   NOAA       Earth
Advisory